createdAt,value
2022-11-25T00:00:37.682Z,189.54
2022-11-25T00:01:22.918Z,92.77
2022-11-25T00:02:08.106Z,74.82
2022-11-25T00:02:53.166Z,75.78
2022-11-25T00:03:38.156Z,70.80
2022-11-25T00:04:23.153Z,82.76
2022-11-25T00:05:08.236Z,122.15
2022-11-25T00:05:52.876Z,89.65
2022-11-25T00:06:37.916Z,89.65
2022-11-25T00:07:23.212Z,145.44
2022-11-25T00:08:08.741Z,151.41
2022-11-25T00:08:53.592Z,100.61
2022-11-25T00:09:39.185Z,96.42
2022-11-25T00:10:23.607Z,97.56
2022-11-25T00:11:08.609Z,102.54
2022-11-25T00:11:53.445Z,103.53
2022-11-25T00:12:38.566Z,100.55
2022-11-25T00:13:23.435Z,96.57
2022-11-25T00:14:08.554Z,94.51
2022-11-25T00:14:53.741Z,97.49
2022-11-25T00:15:38.788Z,96.50
2022-11-25T00:16:23.816Z,96.50
2022-11-25T00:17:08.733Z,91.52
2022-11-25T00:17:53.864Z,90.59
2022-11-25T00:18:38.952Z,106.44
2022-11-25T00:19:23.990Z,170.23
2022-11-25T00:20:08.919Z,242.91
2022-11-25T00:20:54.196Z,213.04
2022-11-25T00:21:39.390Z,168.24
2022-11-25T00:22:24.332Z,132.31
2022-11-25T00:23:09.358Z,180.30
2022-11-25T00:23:54.332Z,209.57
2022-11-25T00:24:39.265Z,99.89
2022-11-25T00:25:24.588Z,85.87
2022-11-25T00:26:09.792Z,224.76
2022-11-25T00:26:55.079Z,127.81
2022-11-25T00:27:39.394Z,163.76
2022-11-25T00:28:24.602Z,163.76
2022-11-25T00:29:09.612Z,106.89
2022-11-25T00:29:55.291Z,106.89
2022-11-25T00:30:39.714Z,98.85
2022-11-25T00:31:25.007Z,97.80
2022-11-25T00:32:09.947Z,125.69
2022-11-25T00:32:54.879Z,101.75
2022-11-25T00:33:39.942Z,107.74
2022-11-25T00:34:24.793Z,80.80
2022-11-25T00:35:09.701Z,74.82
2022-11-25T00:35:55.272Z,63.84
2022-11-25T00:36:40.166Z,65.84
2022-11-25T00:37:25.219Z,73.82
2022-11-25T00:38:09.970Z,77.65
2022-11-25T00:38:55.648Z,74.82
2022-11-25T00:39:40.494Z,74.82
2022-11-25T00:40:25.553Z,77.81
2022-11-25T00:41:10.397Z,77.65
2022-11-25T00:41:55.565Z,76.78
2022-11-25T00:42:40.616Z,69.80
2022-11-25T00:43:25.676Z,70.80
2022-11-25T00:44:10.593Z,76.78
2022-11-25T00:44:55.583Z,81.77
2022-11-25T00:45:40.713Z,84.76
2022-11-25T00:46:25.908Z,77.78
2022-11-25T00:47:10.702Z,74.79
2022-11-25T00:47:56.267Z,74.79
2022-11-25T00:48:40.860Z,74.79
2022-11-25T00:49:25.925Z,73.79
2022-11-25T00:50:11.180Z,71.72
2022-11-25T00:50:56.130Z,79.69
2022-11-25T00:51:41.207Z,88.66
2022-11-25T00:52:26.051Z,76.70
2022-11-25T00:53:11.102Z,66.74
2022-11-25T00:53:58.909Z,70.63
2022-11-25T00:54:41.209Z,67.74
2022-11-25T00:55:26.372Z,78.69
2022-11-25T00:56:11.530Z,80.69
2022-11-25T00:56:56.687Z,70.73
2022-11-25T00:57:41.539Z,72.72
2022-11-25T00:58:26.435Z,74.71
2022-11-25T00:59:11.450Z,89.46
2022-11-25T00:59:56.522Z,95.63
2022-11-25T01:00:41.729Z,90.45
2022-11-25T01:01:26.551Z,88.66
2022-11-25T01:02:11.749Z,91.45
2022-11-25T01:02:56.831Z,144.44
2022-11-25T01:03:41.687Z,121.53
2022-11-25T01:04:26.741Z,190.26
2022-11-25T01:05:12.161Z,190.85
2022-11-25T01:05:57.259Z,144.44
2022-11-25T01:06:42.012Z,93.64
2022-11-25T01:07:26.881Z,87.66
2022-11-25T01:08:12.024Z,92.64
2022-11-25T01:08:57.385Z,89.65
2022-11-25T01:09:42.028Z,91.64
2022-11-25T01:10:27.396Z,82.68
2022-11-25T01:11:12.456Z,95.63
2022-11-25T01:11:57.545Z,126.51
2022-11-25T01:12:42.373Z,185.28
2022-11-25T01:13:27.517Z,119.28
2022-11-25T01:14:12.474Z,77.70
2022-11-25T01:14:57.818Z,77.70
2022-11-25T01:15:42.387Z,79.69
2022-11-25T01:16:27.986Z,173.95
2022-11-25T01:17:12.802Z,115.55
2022-11-25T01:17:57.781Z,143.44
2022-11-25T01:18:43.531Z,216.16
2022-11-25T01:19:28.369Z,215.17
2022-11-25T01:20:13.040Z,202.22
2022-11-25T01:20:58.185Z,209.06
2022-11-25T01:21:43.162Z,212.18
2022-11-25T01:22:27.699Z,196.24
2022-11-25T01:23:13.258Z,207.07
2022-11-25T01:23:58.461Z,203.09
2022-11-25T01:24:43.495Z,204.08
2022-11-25T01:25:28.220Z,187.16
2022-11-25T01:26:13.272Z,214.17
2022-11-25T01:26:58.446Z,183.29
2022-11-25T01:27:43.695Z,105.37
2022-11-25T01:28:28.655Z,144.44
2022-11-25T01:29:13.809Z,154.07
2022-11-25T01:29:58.860Z,75.66
2022-11-25T01:30:43.614Z,71.68
2022-11-25T01:31:28.750Z,66.70
2022-11-25T01:32:13.847Z,65.70
2022-11-25T01:32:58.983Z,81.63
2022-11-25T01:33:44.272Z,178.20
2022-11-25T01:34:29.202Z,91.59
2022-11-25T01:35:14.664Z,91.59
2022-11-25T01:35:59.222Z,108.51
2022-11-25T01:36:44.180Z,117.54
2022-11-25T01:37:29.427Z,102.60
2022-11-25T01:38:14.480Z,100.55
2022-11-25T01:38:59.648Z,105.59
2022-11-25T01:39:44.400Z,109.58
2022-11-25T01:40:29.650Z,98.62
2022-11-25T01:41:14.719Z,105.59
2022-11-25T01:41:59.970Z,94.63
2022-11-25T01:42:44.853Z,93.64
2022-11-25T01:43:30.286Z,92.64
2022-11-25T01:44:14.939Z,98.62
2022-11-25T01:44:59.892Z,92.44
2022-11-25T01:45:45.377Z,86.61
2022-11-25T01:46:29.904Z,74.71
2022-11-25T01:47:15.178Z,80.69
2022-11-25T01:48:00.429Z,92.64
2022-11-25T01:48:45.073Z,67.70
2022-11-25T01:49:30.145Z,122.45
2022-11-25T01:50:15.383Z,199.10
2022-11-25T01:51:00.444Z,171.23
2022-11-25T01:51:45.299Z,190.14
2022-11-25T01:52:30.660Z,207.07
2022-11-25T01:53:15.613Z,194.13
2022-11-25T01:54:00.671Z,207.07
2022-11-25T01:54:45.728Z,196.12
2022-11-25T01:55:30.682Z,205.08
2022-11-25T01:56:15.946Z,193.13
2022-11-25T01:57:00.791Z,190.14
2022-11-25T01:57:45.952Z,130.41
2022-11-25T01:58:31.009Z,103.53
2022-11-25T01:59:15.967Z,111.50
2022-11-25T02:00:01.529Z,103.70
2022-11-25T02:00:46.031Z,103.70
2022-11-25T02:01:30.955Z,59.83
2022-11-25T02:02:15.998Z,81.68
2022-11-25T02:03:01.451Z,125.51
2022-11-25T02:03:46.355Z,137.47
2022-11-25T02:04:31.250Z,158.39
2022-11-25T02:05:16.519Z,163.02
2022-11-25T02:06:01.571Z,140.46
2022-11-25T02:06:46.324Z,135.47
2022-11-25T02:07:31.449Z,139.46
2022-11-25T02:08:16.428Z,114.56
2022-11-25T02:09:01.304Z,136.47
2022-11-25T02:09:46.546Z,157.39
2022-11-25T02:10:31.602Z,150.73
2022-11-25T02:11:16.357Z,141.79
2022-11-25T02:12:02.026Z,141.79
2022-11-25T02:12:46.727Z,135.80
2022-11-25T02:13:32.015Z,116.79
2022-11-25T02:14:16.887Z,134.80
2022-11-25T02:15:01.948Z,134.80
2022-11-25T02:15:46.900Z,124.81
2022-11-25T02:16:32.194Z,147.69
2022-11-25T02:17:17.111Z,129.81
2022-11-25T02:18:02.061Z,137.79
2022-11-25T02:18:46.913Z,137.76
2022-11-25T02:19:32.072Z,151.57
2022-11-25T02:20:17.131Z,135.76
2022-11-25T02:21:02.226Z,63.90
2022-11-25T02:21:47.764Z,114.83
2022-11-25T02:22:32.916Z,166.75
2022-11-25T02:23:17.437Z,144.78
2022-11-25T02:24:03.064Z,143.82
2022-11-25T02:24:47.777Z,145.74
2022-11-25T02:25:32.577Z,136.86
2022-11-25T02:26:17.681Z,136.86
2022-11-25T02:27:03.151Z,136.86
2022-11-25T02:27:47.941Z,136.86
2022-11-25T02:28:32.956Z,71.92
2022-11-25T02:29:18.016Z,71.92
2022-11-25T02:30:03.377Z,78.93
2022-11-25T02:30:47.928Z,81.91
2022-11-25T02:31:33.196Z,72.92
2022-11-25T02:32:18.297Z,69.93
2022-11-25T02:33:03.396Z,70.94
2022-11-25T02:33:48.860Z,92.90
2022-11-25T02:34:33.645Z,78.90
2022-11-25T02:35:18.357Z,72.96
2022-11-25T02:36:04.139Z,77.93
2022-11-25T02:36:48.594Z,67.96
2022-11-25T02:37:33.730Z,67.95
2022-11-25T02:38:18.604Z,73.96
2022-11-25T02:39:03.647Z,62.94
2022-11-25T02:39:49.057Z,82.94
2022-11-25T02:40:33.862Z,146.89
2022-11-25T02:41:18.710Z,140.91
2022-11-25T02:42:03.870Z,69.96
2022-11-25T02:42:48.826Z,83.96
2022-11-25T02:43:34.288Z,62.97
2022-11-25T02:44:19.143Z,59.97
2022-11-25T02:45:04.091Z,64.98
2022-11-25T02:45:49.216Z,71.98
2022-11-25T02:46:34.319Z,73.97
2022-11-25T02:47:18.859Z,67.97
2022-11-25T02:48:04.103Z,62.97
2022-11-25T02:49:08.558Z,64.97
2022-11-25T02:49:34.245Z,70.96
2022-11-25T02:50:19.079Z,79.97
2022-11-25T02:51:04.494Z,84.98
2022-11-25T02:51:49.607Z,144.97
2022-11-25T02:52:34.381Z,86.98
2022-11-25T02:53:19.515Z,74.98
2022-11-25T02:54:04.878Z,84.96
2022-11-25T02:54:50.288Z,105.97
2022-11-25T02:55:34.664Z,119.97
2022-11-25T02:56:20.154Z,153.96
2022-11-25T02:57:04.921Z,169.95
2022-11-25T02:57:50.054Z,149.95
2022-11-25T02:58:34.906Z,154.91
2022-11-25T02:59:19.994Z,166.90
2022-11-25T03:00:05.283Z,164.90
2022-11-25T03:00:50.187Z,167.90
2022-11-25T03:01:35.057Z,181.95
2022-11-25T03:02:20.261Z,168.95
2022-11-25T03:03:05.243Z,142.96
2022-11-25T03:03:49.957Z,169.95
2022-11-25T03:04:35.584Z,173.94
2022-11-25T03:05:20.516Z,174.94
2022-11-25T03:06:05.515Z,171.94
2022-11-25T03:06:50.332Z,180.95
2022-11-25T03:07:35.964Z,172.95
2022-11-25T03:08:20.584Z,115.40
2022-11-25T03:09:05.771Z,173.94
2022-11-25T03:09:50.751Z,184.94
2022-11-25T03:10:35.701Z,179.95
2022-11-25T03:11:21.079Z,167.95
2022-11-25T03:12:06.024Z,150.96
2022-11-25T03:12:51.027Z,148.96
2022-11-25T03:13:35.875Z,87.96
2022-11-25T03:14:21.197Z,83.95
2022-11-25T03:15:06.250Z,79.97
2022-11-25T03:15:51.103Z,156.92
2022-11-25T03:16:36.343Z,176.95
2022-11-25T03:17:21.319Z,176.95
2022-11-25T03:18:06.271Z,207.96
2022-11-25T03:18:51.433Z,207.96
2022-11-25T03:19:36.485Z,170.96
2022-11-25T03:20:21.746Z,186.96
2022-11-25T03:21:06.598Z,177.95
2022-11-25T03:21:51.652Z,191.95
2022-11-25T03:22:36.505Z,189.96
2022-11-25T03:23:21.662Z,189.96
2022-11-25T03:24:06.933Z,181.96
2022-11-25T03:24:52.097Z,190.96
2022-11-25T03:25:36.841Z,194.96
2022-11-25T03:26:21.697Z,180.97
2022-11-25T03:27:07.563Z,188.97
2022-11-25T03:27:51.809Z,191.96
2022-11-25T03:28:36.963Z,192.96
2022-11-25T03:29:22.143Z,166.97
2022-11-25T03:30:06.971Z,170.97
2022-11-25T03:30:51.984Z,181.97
2022-11-25T03:31:37.160Z,167.97
2022-11-25T03:32:22.440Z,167.97
2022-11-25T03:33:07.911Z,189.96
2022-11-25T03:33:52.352Z,189.96
2022-11-25T03:34:37.931Z,174.97
2022-11-25T03:35:22.799Z,169.98
2022-11-25T03:36:07.737Z,169.97
2022-11-25T03:36:52.636Z,122.66
2022-11-25T03:37:38.141Z,166.97
2022-11-25T03:38:23.102Z,171.98
2022-11-25T03:39:08.488Z,171.98
2022-11-25T03:39:52.799Z,169.79
2022-11-25T03:40:37.757Z,172.97
2022-11-25T03:41:23.528Z,182.95
2022-11-25T03:42:07.925Z,170.95
2022-11-25T03:42:53.196Z,172.97
2022-11-25T03:43:38.184Z,167.94
2022-11-25T03:44:23.422Z,183.96
2022-11-25T03:45:08.193Z,169.95
2022-11-25T03:45:53.213Z,152.98
2022-11-25T03:46:38.336Z,158.39
2022-11-25T03:47:25.716Z,158.39
2022-11-25T03:48:08.422Z,145.98
2022-11-25T03:48:53.481Z,157.98
2022-11-25T03:49:38.304Z,169.97
2022-11-25T03:50:23.907Z,174.97
2022-11-25T03:51:08.643Z,163.98
2022-11-25T03:51:53.807Z,156.99
2022-11-25T03:52:38.772Z,168.98
2022-11-25T03:53:23.935Z,166.99
2022-11-25T03:54:08.876Z,139.58
2022-11-25T03:54:53.934Z,163.98
2022-11-25T03:55:39.548Z,169.97
2022-11-25T03:56:24.040Z,149.99
2022-11-25T03:57:09.401Z,163.98
2022-11-25T03:57:54.070Z,153.99
2022-11-25T03:58:39.516Z,159.98
2022-11-25T03:59:24.272Z,163.98
2022-11-25T04:00:09.323Z,156.99
2022-11-25T04:00:54.542Z,149.99
2022-11-25T04:01:43.994Z,158.99
2022-11-25T04:02:24.677Z,161.98
2022-11-25T04:03:09.448Z,157.99
2022-11-25T04:03:54.504Z,158.99
2022-11-25T04:04:39.660Z,158.99
2022-11-25T04:05:24.613Z,151.99
2022-11-25T04:06:09.722Z,160.97
2022-11-25T04:06:54.623Z,164.99
2022-11-25T04:07:40.109Z,149.99
2022-11-25T04:08:24.944Z,143.99
2022-11-25T04:09:09.797Z,161.99
2022-11-25T04:09:54.837Z,102.41
2022-11-25T04:10:40.005Z,151.99
2022-11-25T04:11:24.863Z,162.99
2022-11-25T04:12:10.130Z,143.99
2022-11-25T04:12:55.539Z,168.99
2022-11-25T04:13:40.338Z,155.99
2022-11-25T04:14:25.504Z,151.99
2022-11-25T04:15:10.139Z,100.79
2022-11-25T04:15:55.201Z,134.99
2022-11-25T04:16:40.138Z,142.99
2022-11-25T04:17:27.050Z,142.99
2022-11-25T04:18:10.570Z,148.99
2022-11-25T04:18:55.532Z,136.99
2022-11-25T04:19:40.289Z,148.99
2022-11-25T04:20:25.537Z,153.99
2022-11-25T04:21:10.789Z,162.99
2022-11-25T04:21:55.551Z,139.99
2022-11-25T04:22:41.634Z,141.99
2022-11-25T04:23:25.976Z,144.96
2022-11-25T04:24:11.634Z,144.96
2022-11-25T04:24:56.037Z,149.81
2022-11-25T04:25:41.132Z,147.89
2022-11-25T04:26:26.201Z,147.97
2022-11-25T04:27:11.140Z,144.97
2022-11-25T04:27:55.661Z,149.96
2022-11-25T04:28:41.051Z,165.97
2022-11-25T04:29:26.313Z,144.98
2022-11-25T04:30:11.267Z,165.98
2022-11-25T04:30:56.383Z,164.98
2022-11-25T04:31:41.615Z,150.98
2022-11-25T04:32:27.321Z,148.99
2022-11-25T04:33:11.494Z,151.99
2022-11-25T04:33:57.427Z,163.97
2022-11-25T04:34:41.504Z,146.99
2022-11-25T04:35:26.440Z,157.99
2022-11-25T04:36:11.413Z,166.98
2022-11-25T04:36:56.629Z,147.98
2022-11-25T04:37:41.421Z,134.98
2022-11-25T04:38:26.581Z,150.99
2022-11-25T04:39:11.529Z,145.99
2022-11-25T04:39:56.654Z,153.99
2022-11-25T04:40:41.385Z,146.99
2022-11-25T04:41:26.532Z,150.98
2022-11-25T04:42:11.812Z,147.98
2022-11-25T04:43:02.444Z,149.98
2022-11-25T04:43:41.674Z,140.98
2022-11-25T04:44:26.663Z,142.99
2022-11-25T04:45:23.333Z,146.97
2022-11-25T04:46:13.629Z,153.98
2022-11-25T04:46:42.198Z,143.98
2022-11-25T04:47:26.841Z,134.98
2022-11-25T04:48:11.915Z,101.99
2022-11-25T04:48:57.162Z,124.99
2022-11-25T04:49:42.834Z,108.77
2022-11-25T04:50:27.073Z,116.99
2022-11-25T04:51:11.822Z,101.94
2022-11-25T04:51:56.889Z,101.94
2022-11-25T04:52:42.238Z,101.94
2022-11-25T04:53:27.412Z,162.98
2022-11-25T04:54:16.163Z,114.98
2022-11-25T04:54:57.485Z,161.99
2022-11-25T04:55:42.264Z,180.99
2022-11-25T04:56:27.627Z,154.99
2022-11-25T04:57:12.578Z,167.97
2022-11-25T04:57:57.844Z,149.99
2022-11-25T04:58:42.369Z,146.97
2022-11-25T04:59:27.646Z,170.98
2022-11-25T05:00:13.139Z,173.99
2022-11-25T05:00:57.805Z,157.99
2022-11-25T05:01:42.832Z,150.98
2022-11-25T05:02:28.204Z,154.99
2022-11-25T05:03:12.935Z,175.98
2022-11-25T05:03:58.092Z,145.99
2022-11-25T05:04:43.039Z,141.99
2022-11-25T05:05:28.403Z,141.99
2022-11-25T05:06:13.249Z,146.99
2022-11-25T05:06:58.409Z,156.99
2022-11-25T05:07:43.372Z,179.99
2022-11-25T05:08:28.322Z,162.99
2022-11-25T05:09:13.784Z,180.99
2022-11-25T05:09:58.469Z,126.99
2022-11-25T05:10:43.455Z,132.99
2022-11-25T05:11:28.670Z,136.99
2022-11-25T05:12:13.604Z,137.99
2022-11-25T05:12:58.867Z,146.99
2022-11-25T05:13:44.022Z,140.99
2022-11-25T05:14:29.076Z,144.99
2022-11-25T05:15:14.131Z,134.99
2022-11-25T05:15:59.406Z,149.99
2022-11-25T05:16:44.378Z,136.99
2022-11-25T05:17:29.205Z,127.99
2022-11-25T05:18:14.685Z,149.99
2022-11-25T05:18:59.627Z,142.99
2022-11-25T05:19:44.160Z,129.99
2022-11-25T05:20:29.430Z,146.99
2022-11-25T05:21:14.380Z,136.99
2022-11-25T05:21:59.641Z,137.99
2022-11-25T05:22:44.395Z,141.99
2022-11-25T05:23:29.547Z,141.00
2022-11-25T05:24:14.502Z,128.00
2022-11-25T05:24:59.760Z,137.00
2022-11-25T05:25:44.305Z,109.00
2022-11-25T05:26:29.470Z,121.00
2022-11-25T05:27:14.526Z,124.99
2022-11-25T05:27:59.698Z,110.99
2022-11-25T05:28:44.837Z,117.99
2022-11-25T05:29:29.906Z,112.99
2022-11-25T05:30:14.553Z,111.99
2022-11-25T05:31:00.073Z,151.96
2022-11-25T05:31:45.376Z,145.00
2022-11-25T05:32:30.226Z,113.00
2022-11-25T05:33:15.378Z,132.00
2022-11-25T05:34:00.459Z,123.00
2022-11-25T05:34:45.501Z,135.00
2022-11-25T05:35:30.247Z,120.00
2022-11-25T05:36:15.511Z,119.00
2022-11-25T05:37:00.870Z,112.00
2022-11-25T05:37:45.218Z,122.00
2022-11-25T05:38:30.574Z,126.99
2022-11-25T05:39:15.842Z,123.00
2022-11-25T05:40:00.583Z,127.00
2022-11-25T05:40:45.513Z,120.00
2022-11-25T05:41:30.593Z,128.00
2022-11-25T05:42:15.651Z,120.00
2022-11-25T05:43:01.117Z,121.00
2022-11-25T05:43:45.762Z,125.00
2022-11-25T05:44:31.536Z,123.00
2022-11-25T05:45:16.079Z,123.00
2022-11-25T05:46:01.081Z,125.00
2022-11-25T05:46:46.096Z,120.00
2022-11-25T05:47:31.040Z,123.00
2022-11-25T05:48:15.896Z,124.00
2022-11-25T05:49:00.920Z,121.00
2022-11-25T05:49:46.523Z,129.99
2022-11-25T05:50:31.483Z,126.00
2022-11-25T05:51:16.221Z,133.00
2022-11-25T05:52:01.278Z,121.00
2022-11-25T05:52:46.539Z,130.00
2022-11-25T05:53:31.286Z,128.00
2022-11-25T05:54:16.558Z,136.00
2022-11-25T05:55:02.017Z,118.00
2022-11-25T05:55:46.814Z,122.00
2022-11-25T05:56:31.409Z,120.00
2022-11-25T05:57:16.778Z,120.00
2022-11-25T05:58:02.160Z,114.00
2022-11-25T05:58:46.991Z,115.00
2022-11-25T05:59:31.950Z,126.00
2022-11-25T06:00:16.983Z,128.00
2022-11-25T06:01:02.266Z,116.00
2022-11-25T06:01:47.215Z,116.00
2022-11-25T06:02:32.332Z,131.00
2022-11-25T06:03:17.751Z,133.00
2022-11-25T06:04:02.193Z,128.00
2022-11-25T06:04:47.437Z,122.00
2022-11-25T06:05:32.493Z,132.00
2022-11-25T06:06:17.364Z,138.00
2022-11-25T06:07:03.537Z,129.00
2022-11-25T06:07:47.514Z,128.00
2022-11-25T06:08:32.622Z,135.00
2022-11-25T06:09:17.704Z,132.00
2022-11-25T06:10:03.416Z,126.00
2022-11-25T06:10:47.701Z,113.00
2022-11-25T06:11:32.664Z,116.00
2022-11-25T06:12:18.108Z,111.00
2022-11-25T06:13:03.272Z,118.00
2022-11-25T06:13:48.330Z,116.98
2022-11-25T06:14:33.175Z,117.99
2022-11-25T06:15:18.430Z,117.99
2022-11-25T06:16:07.535Z,115.00
2022-11-25T06:16:48.131Z,128.00
2022-11-25T06:17:33.398Z,125.00
2022-11-25T06:18:18.555Z,131.00
2022-11-25T06:19:03.818Z,120.00
2022-11-25T06:19:48.601Z,120.00
2022-11-25T06:20:33.621Z,128.00
2022-11-25T06:21:18.579Z,117.00
2022-11-25T06:22:03.332Z,123.00
2022-11-25T06:22:48.465Z,122.00
2022-11-25T06:23:33.642Z,112.00
2022-11-25T06:24:19.066Z,118.00
2022-11-25T06:25:04.261Z,126.00
2022-11-25T06:25:49.119Z,118.00
2022-11-25T06:26:33.991Z,131.00
2022-11-25T06:27:19.094Z,132.00
2022-11-25T06:28:13.646Z,105.00
2022-11-25T06:28:49.274Z,113.99
2022-11-25T06:29:34.091Z,121.99
2022-11-25T06:30:18.943Z,139.99
2022-11-25T06:31:04.332Z,135.99
2022-11-25T06:31:49.278Z,130.99
2022-11-25T06:32:37.404Z,145.99
2022-11-25T06:33:19.270Z,117.99
2022-11-25T06:34:04.638Z,129.99
2022-11-25T06:34:49.689Z,136.99
2022-11-25T06:35:34.570Z,115.99
2022-11-25T06:36:19.910Z,115.99
2022-11-25T06:37:04.760Z,126.99
2022-11-25T06:37:49.833Z,116.99
2022-11-25T06:38:34.770Z,112.99
2022-11-25T06:39:20.133Z,112.99
2022-11-25T06:40:04.878Z,119.99
2022-11-25T06:40:50.761Z,120.99
2022-11-25T06:41:34.994Z,112.99
2022-11-25T06:42:20.155Z,119.99
2022-11-25T06:43:05.316Z,117.99
2022-11-25T06:43:50.158Z,109.99
2022-11-25T06:44:35.781Z,130.99
2022-11-25T06:45:20.686Z,142.99
2022-11-25T06:46:05.489Z,120.99
2022-11-25T06:46:50.661Z,121.99
2022-11-25T06:47:35.814Z,120.99
2022-11-25T06:48:20.913Z,123.99
2022-11-25T06:49:05.759Z,120.99
2022-11-25T06:49:50.721Z,122.99
2022-11-25T06:50:36.649Z,127.99
2022-11-25T06:51:20.935Z,129.99
2022-11-25T06:52:05.809Z,121.98
2022-11-25T06:52:50.838Z,132.99
2022-11-25T06:53:36.009Z,129.98
2022-11-25T06:54:21.114Z,126.99
2022-11-25T06:55:06.110Z,121.99
2022-11-25T06:55:51.149Z,137.99
2022-11-25T06:56:36.330Z,126.98
2022-11-25T06:57:21.555Z,123.99
2022-11-25T06:58:28.319Z,123.99
2022-11-25T06:58:51.296Z,114.99
2022-11-25T06:59:36.452Z,113.99
2022-11-25T07:00:21.516Z,157.99
2022-11-25T07:01:06.769Z,210.96
2022-11-25T07:01:51.770Z,132.97
2022-11-25T07:02:41.727Z,105.98
2022-11-25T07:03:21.855Z,119.99
2022-11-25T07:04:07.302Z,116.99
2022-11-25T07:04:51.778Z,104.99
2022-11-25T07:05:36.592Z,115.99
2022-11-25T07:06:21.886Z,108.99
2022-11-25T07:07:06.810Z,113.99
2022-11-25T07:07:51.900Z,100.99
2022-11-25T07:08:37.382Z,111.99
2022-11-25T07:09:22.118Z,118.99
2022-11-25T07:10:07.144Z,140.99
2022-11-25T07:10:52.224Z,103.99
2022-11-25T07:11:37.058Z,116.99
2022-11-25T07:12:22.002Z,116.99
2022-11-25T07:13:07.467Z,112.99
2022-11-25T07:13:52.463Z,107.99
2022-11-25T07:14:37.122Z,119.99
2022-11-25T07:15:22.431Z,108.99
2022-11-25T07:16:07.689Z,108.99
2022-11-25T07:16:52.616Z,81.99
2022-11-25T07:17:37.504Z,87.99
2022-11-25T07:18:22.759Z,83.99
2022-11-25T07:19:07.736Z,82.99
2022-11-25T07:19:52.664Z,90.99
2022-11-25T07:20:37.822Z,90.99
2022-11-25T07:21:22.989Z,75.99
2022-11-25T07:22:08.045Z,67.98
2022-11-25T07:22:52.893Z,63.99
2022-11-25T07:23:37.867Z,63.99
2022-11-25T07:24:23.722Z,69.99
2022-11-25T07:25:08.272Z,83.99
2022-11-25T07:25:53.118Z,83.99
2022-11-25T07:26:38.221Z,71.99
2022-11-25T07:27:23.536Z,68.99
2022-11-25T07:28:08.590Z,65.99
2022-11-25T07:28:53.425Z,50.99
2022-11-25T07:30:18.645Z,94.99
2022-11-25T07:31:21.632Z,63.99
2022-11-25T07:31:27.159Z,52.99
2022-11-25T07:31:53.462Z,51.99
2022-11-25T07:32:38.932Z,54.99
2022-11-25T07:33:23.835Z,52.99
2022-11-25T07:34:08.746Z,47.99
2022-11-25T07:34:53.793Z,49.99
2022-11-25T07:35:38.848Z,55.99
2022-11-25T07:36:24.112Z,49.99
2022-11-25T07:37:08.965Z,53.99
2022-11-25T07:37:54.438Z,50.99
2022-11-25T07:38:43.489Z,47.99
2022-11-25T07:39:24.335Z,44.99
2022-11-25T07:40:09.103Z,46.99
2022-11-25T07:40:54.302Z,42.99
2022-11-25T07:41:39.093Z,51.99
2022-11-25T07:42:24.154Z,57.99
2022-11-25T07:43:09.473Z,55.99
2022-11-25T07:43:54.269Z,54.99
2022-11-25T07:44:39.456Z,55.99
2022-11-25T07:45:24.511Z,54.99
2022-11-25T07:46:09.498Z,60.99
2022-11-25T07:46:54.754Z,52.99
2022-11-25T07:47:39.754Z,58.99
2022-11-25T07:48:24.709Z,55.99
2022-11-25T07:49:09.569Z,52.99
2022-11-25T07:49:54.616Z,57.99
2022-11-25T07:50:39.871Z,56.99
2022-11-25T07:51:25.039Z,53.99
2022-11-25T07:52:09.998Z,53.99
2022-11-25T07:52:54.749Z,52.99
2022-11-25T07:53:40.204Z,57.99
2022-11-25T07:54:25.056Z,55.99
2022-11-25T07:55:10.419Z,54.99
2022-11-25T07:55:55.473Z,53.98
2022-11-25T07:56:40.223Z,54.99
2022-11-25T07:57:25.380Z,51.99
2022-11-25T07:58:10.131Z,54.99
2022-11-25T07:58:55.293Z,53.99
2022-11-25T07:59:40.555Z,49.99
2022-11-25T08:00:25.613Z,49.99
2022-11-25T08:01:10.520Z,51.99
2022-11-25T08:01:55.639Z,48.99
2022-11-25T08:02:40.845Z,55.99
2022-11-25T08:03:25.833Z,52.99
2022-11-25T08:04:12.786Z,47.99
2022-11-25T08:04:55.744Z,47.99
2022-11-25T08:05:41.004Z,46.99
2022-11-25T08:06:25.771Z,46.99
2022-11-25T08:07:11.091Z,46.99
2022-11-25T08:07:55.770Z,47.99
2022-11-25T08:08:40.977Z,52.99
2022-11-25T08:09:26.114Z,56.99
2022-11-25T08:10:11.151Z,50.99
2022-11-25T08:10:56.402Z,48.98
2022-11-25T08:11:41.149Z,51.99
2022-11-25T08:12:26.209Z,50.99
2022-11-25T08:13:11.264Z,50.99
2022-11-25T08:13:56.401Z,48.99
2022-11-25T08:14:41.478Z,48.99
2022-11-25T08:15:26.538Z,70.98
2022-11-25T08:16:11.532Z,76.98
2022-11-25T08:16:56.407Z,76.98
2022-11-25T08:17:41.706Z,73.98
2022-11-25T08:18:26.734Z,72.97
2022-11-25T08:19:11.811Z,70.98
2022-11-25T08:19:56.710Z,74.98
2022-11-25T08:20:41.563Z,74.98
2022-11-25T08:21:26.572Z,74.98
2022-11-25T08:22:11.759Z,80.98
2022-11-25T08:22:57.110Z,76.98
2022-11-25T08:23:42.065Z,79.98
2022-11-25T08:24:26.905Z,79.98
2022-11-25T08:25:11.864Z,80.98
2022-11-25T08:25:57.445Z,88.98
2022-11-25T08:26:42.007Z,69.98
2022-11-25T08:27:27.488Z,74.98
2022-11-25T08:28:12.402Z,73.97
2022-11-25T08:28:57.780Z,71.98
2022-11-25T08:29:42.985Z,62.98
2022-11-25T08:30:28.632Z,47.99
2022-11-25T08:31:13.163Z,56.98
2022-11-25T08:31:59.133Z,49.99
2022-11-25T08:32:42.873Z,52.97
2022-11-25T08:33:27.806Z,53.98
2022-11-25T08:34:12.877Z,51.99
2022-11-25T08:34:58.223Z,53.98
2022-11-25T08:35:42.666Z,50.99
2022-11-25T08:36:27.706Z,52.99
2022-11-25T08:37:13.026Z,46.99
2022-11-25T08:37:58.254Z,46.99
2022-11-25T08:38:43.932Z,44.99
2022-11-25T08:39:51.009Z,44.99
2022-11-25T08:40:13.468Z,60.98
2022-11-25T08:40:58.298Z,54.98
2022-11-25T08:41:43.263Z,53.98
2022-11-25T08:42:28.304Z,56.98
2022-11-25T08:43:13.443Z,60.98
2022-11-25T08:43:58.464Z,56.98
2022-11-25T08:44:43.596Z,57.98
2022-11-25T08:45:28.644Z,56.98
2022-11-25T08:46:14.194Z,62.98
2022-11-25T08:46:59.163Z,55.98
2022-11-25T08:47:44.136Z,55.98
2022-11-25T08:48:28.711Z,56.98
2022-11-25T08:49:13.459Z,54.98
2022-11-25T08:49:59.175Z,54.98
2022-11-25T08:50:44.048Z,53.97
2022-11-25T08:51:28.763Z,57.98
2022-11-25T08:52:14.059Z,51.99
2022-11-25T08:52:59.314Z,55.98
2022-11-25T08:53:44.648Z,50.99
2022-11-25T08:54:29.211Z,54.98
2022-11-25T08:55:14.010Z,54.98
2022-11-25T08:55:59.719Z,53.98
2022-11-25T08:56:44.435Z,49.99
2022-11-25T08:57:29.611Z,48.99
2022-11-25T08:58:14.481Z,47.99
2022-11-25T08:58:59.604Z,47.99
2022-11-25T08:59:44.461Z,49.99
2022-11-25T09:00:29.551Z,50.99
2022-11-25T09:01:14.791Z,48.99
2022-11-25T09:02:00.379Z,50.98
2022-11-25T09:02:44.756Z,46.98
2022-11-25T09:03:29.777Z,46.98
2022-11-25T09:04:14.896Z,48.98
2022-11-25T09:05:00.420Z,47.98
2022-11-25T09:05:45.031Z,45.98
2022-11-25T09:06:29.981Z,45.98
2022-11-25T09:07:14.888Z,46.98
2022-11-25T09:08:00.285Z,44.98
2022-11-25T09:08:45.359Z,84.97
2022-11-25T09:09:30.629Z,67.98
2022-11-25T09:10:15.534Z,60.98
2022-11-25T09:11:00.500Z,58.98
2022-11-25T09:11:45.290Z,58.98
2022-11-25T09:12:30.517Z,58.98
2022-11-25T09:13:15.620Z,55.97
2022-11-25T09:14:00.504Z,53.98
2022-11-25T09:14:45.617Z,57.98
2022-11-25T09:15:30.567Z,54.98
2022-11-25T09:16:15.820Z,102.96
2022-11-25T09:17:01.327Z,129.96
2022-11-25T09:17:45.883Z,125.96
2022-11-25T09:18:31.695Z,103.94
2022-11-25T09:19:15.940Z,56.98
2022-11-25T09:20:01.568Z,50.98
2022-11-25T09:20:45.859Z,49.98
2022-11-25T09:21:31.096Z,50.98
2022-11-25T09:22:15.915Z,48.98
2022-11-25T09:23:01.542Z,50.98
2022-11-25T09:23:46.505Z,53.98
2022-11-25T09:24:31.027Z,50.98
2022-11-25T09:25:16.393Z,92.94
2022-11-25T09:26:02.375Z,87.97
2022-11-25T09:26:47.217Z,52.98
2022-11-25T09:27:31.383Z,51.97
2022-11-25T09:28:16.444Z,55.98
2022-11-25T09:29:01.783Z,55.98